createdAt,value
2023-09-29T00:00:32.658Z,12.33
2023-09-29T00:03:02.837Z,12.26
2023-09-29T00:05:31.843Z,12.27
2023-09-29T00:08:03.440Z,12.24
2023-09-29T00:10:33.914Z,12.28
2023-09-29T00:13:03.345Z,12.21
2023-09-29T00:15:34.081Z,12.21
2023-09-29T00:18:04.103Z,12.23
2023-09-29T00:20:32.869Z,12.20
2023-09-29T00:23:03.425Z,12.20
2023-09-29T00:25:32.188Z,12.21
2023-09-29T00:28:01.662Z,12.13
2023-09-29T00:30:30.822Z,12.12
2023-09-29T00:32:59.962Z,12.12
2023-09-29T00:35:29.845Z,12.10
2023-09-29T00:38:00.550Z,12.07
2023-09-29T00:40:32.076Z,12.13
2023-09-29T00:43:01.569Z,12.12
2023-09-29T00:45:31.009Z,12.19
2023-09-29T00:48:07.320Z,12.25
2023-09-29T00:50:37.181Z,12.13
2023-09-29T00:53:08.301Z,12.15
2023-09-29T00:55:38.904Z,12.10
2023-09-29T00:58:08.085Z,12.10
2023-09-29T01:00:39.469Z,12.03
2023-09-29T01:03:12.562Z,12.13
2023-09-29T01:05:44.036Z,12.11
2023-09-29T01:08:18.466Z,12.07
2023-09-29T01:10:50.298Z,12.17
2023-09-29T01:13:19.927Z,12.09
2023-09-29T01:15:48.789Z,12.09
2023-09-29T01:18:18.517Z,12.11
2023-09-29T01:20:47.064Z,12.09
2023-09-29T01:23:16.159Z,12.08
2023-09-29T01:25:46.924Z,12.14
2023-09-29T01:28:15.584Z,12.13
2023-09-29T01:30:44.875Z,12.07
2023-09-29T01:33:13.979Z,12.05
2023-09-29T01:35:45.550Z,11.97
2023-09-29T01:38:15.230Z,11.98
2023-09-29T01:40:48.361Z,11.98
2023-09-29T01:43:18.034Z,11.88
2023-09-29T01:45:46.780Z,11.91
2023-09-29T01:48:16.603Z,11.90
2023-09-29T01:50:45.552Z,11.80
2023-09-29T01:53:14.510Z,11.87
2023-09-29T01:55:43.233Z,11.74
2023-09-29T01:58:13.329Z,11.70
2023-09-29T02:00:41.908Z,11.65
2023-09-29T02:03:13.156Z,11.61
2023-09-29T02:05:42.246Z,11.63
2023-09-29T02:08:11.481Z,11.58
2023-09-29T02:10:40.533Z,11.54
2023-09-29T02:13:09.489Z,11.57
2023-09-29T02:16:00.104Z,11.65
2023-09-29T02:18:29.779Z,11.63
2023-09-29T02:20:58.826Z,11.58
2023-09-29T02:23:27.713Z,11.62
2023-09-29T02:25:56.558Z,11.58
2023-09-29T02:28:31.382Z,11.54
2023-09-29T02:31:03.706Z,11.56
2023-09-29T02:33:32.633Z,11.45
2023-09-29T02:36:01.361Z,11.30
2023-09-29T02:38:30.552Z,11.44
2023-09-29T02:41:00.696Z,11.57
2023-09-29T02:43:31.558Z,11.65
2023-09-29T02:46:01.914Z,11.49
2023-09-29T02:48:30.698Z,11.35
2023-09-29T02:51:00.478Z,11.43
2023-09-29T02:53:29.079Z,11.51
2023-09-29T02:55:58.157Z,11.56
2023-09-29T02:58:26.743Z,11.44
2023-09-29T03:00:55.432Z,11.43
2023-09-29T03:03:29.012Z,11.37
2023-09-29T03:05:59.556Z,11.30
2023-09-29T03:08:29.655Z,11.41
2023-09-29T03:10:58.242Z,11.37
2023-09-29T03:13:27.029Z,11.37
2023-09-29T03:15:55.977Z,11.29
2023-09-29T03:18:25.941Z,11.27
2023-09-29T03:20:54.914Z,11.26
2023-09-29T03:23:23.761Z,11.15
2023-09-29T03:25:53.435Z,11.22
2023-09-29T03:28:22.533Z,11.12
2023-09-29T03:30:51.262Z,11.22
2023-09-29T03:33:19.851Z,11.22
2023-09-29T03:35:51.304Z,11.26
2023-09-29T03:38:21.866Z,11.25
2023-09-29T03:40:51.530Z,11.27
2023-09-29T03:43:20.548Z,11.20
2023-09-29T03:45:50.327Z,11.23
2023-09-29T03:48:19.061Z,11.27
2023-09-29T03:50:51.246Z,11.28
2023-09-29T03:53:20.013Z,11.30
2023-09-29T03:55:48.497Z,11.24
2023-09-29T03:58:18.246Z,11.36
2023-09-29T04:00:46.736Z,11.20
2023-09-29T04:03:16.502Z,11.20
2023-09-29T04:05:45.142Z,11.14
2023-09-29T04:08:15.393Z,11.19
2023-09-29T04:10:43.962Z,11.14
2023-09-29T04:13:12.693Z,11.24
2023-09-29T04:15:41.864Z,11.22
2023-09-29T04:18:11.443Z,11.19
2023-09-29T04:20:40.262Z,11.24
2023-09-29T04:23:09.083Z,11.24
2023-09-29T04:25:38.938Z,11.34
2023-09-29T04:28:09.960Z,11.34
2023-09-29T04:30:39.253Z,11.44
2023-09-29T04:33:07.770Z,11.41
2023-09-29T04:35:36.612Z,11.51
2023-09-29T04:38:05.365Z,11.58
2023-09-29T04:40:34.246Z,11.63
2023-09-29T04:43:04.615Z,11.73
2023-09-29T04:45:35.382Z,11.67
2023-09-29T04:48:04.649Z,11.78
2023-09-29T04:50:34.954Z,11.86
2023-09-29T04:53:03.842Z,11.95
2023-09-29T04:55:32.483Z,11.97
2023-09-29T04:58:01.230Z,12.03
2023-09-29T05:00:36.211Z,11.98
2023-09-29T05:03:05.718Z,12.14
2023-09-29T05:05:34.715Z,12.29
2023-09-29T05:08:04.172Z,12.34
2023-09-29T05:10:32.802Z,12.46
2023-09-29T05:13:01.525Z,12.45
2023-09-29T05:15:33.779Z,12.46
2023-09-29T05:18:02.560Z,12.44
2023-09-29T05:20:31.522Z,12.61
2023-09-29T05:23:00.201Z,12.57
2023-09-29T05:25:28.718Z,12.70
2023-09-29T05:27:57.742Z,12.75
2023-09-29T05:30:26.513Z,12.90
2023-09-29T05:32:56.575Z,12.74
2023-09-29T05:35:27.406Z,12.84
2023-09-29T05:37:56.095Z,12.93
2023-09-29T05:40:25.215Z,12.92
2023-09-29T05:42:53.950Z,13.05
2023-09-29T05:45:25.304Z,13.12
2023-09-29T05:47:57.549Z,13.28
2023-09-29T05:50:26.500Z,13.31
2023-09-29T05:53:08.480Z,13.39
2023-09-29T05:55:39.166Z,13.37
2023-09-29T05:58:07.931Z,13.47
2023-09-29T06:00:36.818Z,13.55
2023-09-29T06:03:10.540Z,13.65
2023-09-29T06:05:39.316Z,13.69
2023-09-29T06:08:08.787Z,13.72
2023-09-29T06:10:42.369Z,13.80
2023-09-29T06:13:11.938Z,13.86
2023-09-29T06:15:40.966Z,13.82
2023-09-29T06:18:12.908Z,14.03
2023-09-29T06:20:42.202Z,14.12
2023-09-29T06:23:10.744Z,14.17
2023-09-29T06:25:39.691Z,14.24
2023-09-29T06:28:08.447Z,14.18
2023-09-29T06:30:37.201Z,14.37
2023-09-29T06:33:07.894Z,14.50
2023-09-29T06:35:38.049Z,14.52
2023-09-29T06:38:07.056Z,14.65
2023-09-29T06:40:36.880Z,14.76
2023-09-29T06:43:05.587Z,14.76
2023-09-29T06:45:52.147Z,14.90
2023-09-29T06:48:24.171Z,14.85
2023-09-29T06:51:00.293Z,15.06
2023-09-29T06:53:31.135Z,15.08
2023-09-29T06:56:00.616Z,15.21
2023-09-29T06:58:29.849Z,15.24
2023-09-29T07:01:01.847Z,15.44
2023-09-29T07:03:33.142Z,15.29
2023-09-29T07:06:03.998Z,15.42
2023-09-29T07:08:32.942Z,15.43
2023-09-29T07:11:01.491Z,15.63
2023-09-29T07:13:30.662Z,15.70
2023-09-29T07:16:00.372Z,15.79
2023-09-29T07:18:29.187Z,15.83
2023-09-29T07:20:59.567Z,15.89
2023-09-29T07:23:35.125Z,16.00
2023-09-29T07:26:04.123Z,16.12
2023-09-29T07:28:33.699Z,16.13
2023-09-29T07:31:02.437Z,16.27
2023-09-29T07:33:31.181Z,16.39
2023-09-29T07:35:59.731Z,16.46
2023-09-29T07:38:29.601Z,16.66
2023-09-29T07:41:01.049Z,16.65
2023-09-29T07:43:29.806Z,16.87
2023-09-29T07:45:58.366Z,17.03
2023-09-29T07:48:28.609Z,17.04
2023-09-29T07:50:57.187Z,17.25
2023-09-29T07:53:25.944Z,17.33
2023-09-29T07:55:56.053Z,17.29
2023-09-29T07:58:24.881Z,17.57
2023-09-29T08:00:53.596Z,17.77
2023-09-29T08:03:22.439Z,17.86
2023-09-29T08:05:53.069Z,17.87
2023-09-29T08:08:22.081Z,18.06
2023-09-29T08:10:50.773Z,18.12
2023-09-29T08:13:21.062Z,18.32
2023-09-29T08:15:49.665Z,18.30
2023-09-29T08:18:19.125Z,18.30
2023-09-29T08:20:48.361Z,18.58
2023-09-29T08:23:16.863Z,18.77
2023-09-29T08:25:47.312Z,18.80
2023-09-29T08:28:20.530Z,18.89
2023-09-29T08:30:49.950Z,19.09
2023-09-29T08:33:25.478Z,19.10
2023-09-29T08:36:01.775Z,19.26
2023-09-29T08:38:30.300Z,19.37
2023-09-29T08:40:59.973Z,19.52
2023-09-29T08:43:31.562Z,19.59
2023-09-29T08:46:00.829Z,19.58
2023-09-29T08:48:30.949Z,19.53
2023-09-29T08:51:02.992Z,19.55
2023-09-29T08:53:32.808Z,19.59
2023-09-29T08:56:05.673Z,19.64
2023-09-29T08:58:37.292Z,19.78
2023-09-29T09:01:06.507Z,19.72
2023-09-29T09:03:36.877Z,19.77
2023-09-29T09:06:24.349Z,19.82
2023-09-29T09:08:53.938Z,19.96
2023-09-29T09:11:23.709Z,20.09
2023-09-29T09:14:04.875Z,19.97
2023-09-29T09:16:34.223Z,20.04
2023-09-29T09:19:11.209Z,20.24
2023-09-29T09:21:41.067Z,20.28
2023-09-29T09:24:20.228Z,20.33
2023-09-29T09:26:52.443Z,20.56
2023-09-29T09:29:23.103Z,20.62
2023-09-29T09:31:54.142Z,20.55
2023-09-29T09:34:22.814Z,20.38
2023-09-29T09:36:53.716Z,20.38
2023-09-29T09:39:26.338Z,20.55
2023-09-29T09:41:56.168Z,20.71
2023-09-29T09:44:27.188Z,20.63
2023-09-29T09:47:01.609Z,20.73
2023-09-29T09:49:37.547Z,20.73
2023-09-29T09:52:09.944Z,20.83
2023-09-29T09:54:46.774Z,20.90
2023-09-29T09:57:24.164Z,20.76
2023-09-29T09:59:57.214Z,20.72
2023-09-29T10:02:26.745Z,20.63
2023-09-29T10:04:55.824Z,20.68
2023-09-29T10:07:24.396Z,20.81
2023-09-29T10:09:53.146Z,20.95
2023-09-29T10:12:26.246Z,21.01
2023-09-29T10:14:59.921Z,21.05
2023-09-29T10:17:40.981Z,21.11
2023-09-29T10:20:21.545Z,21.00
2023-09-29T10:22:55.654Z,21.10
2023-09-29T10:25:25.430Z,21.14
2023-09-29T10:28:01.714Z,21.12
2023-09-29T10:30:31.776Z,21.02
2023-09-29T10:33:12.521Z,20.98
2023-09-29T10:35:47.481Z,21.05
2023-09-29T10:38:27.017Z,21.12
2023-09-29T10:40:56.602Z,21.18
2023-09-29T10:43:25.436Z,21.09
2023-09-29T10:45:56.169Z,21.11
2023-09-29T10:48:26.146Z,21.19
2023-09-29T10:50:55.742Z,21.25
2023-09-29T10:53:24.402Z,21.34
2023-09-29T10:55:54.544Z,21.32
2023-09-29T10:58:23.754Z,21.15
2023-09-29T11:00:54.604Z,21.33
2023-09-29T11:03:28.300Z,21.34
2023-09-29T11:06:01.814Z,21.37
2023-09-29T11:08:31.673Z,21.33
2023-09-29T11:11:01.859Z,21.25
2023-09-29T11:13:39.489Z,21.34
2023-09-29T11:16:18.222Z,21.26
2023-09-29T11:18:48.771Z,21.32
2023-09-29T11:21:21.134Z,21.34
2023-09-29T11:23:54.591Z,21.44
2023-09-29T11:26:23.408Z,21.42
2023-09-29T11:28:53.322Z,21.50
2023-09-29T11:31:22.359Z,21.43
2023-09-29T11:33:52.287Z,21.42
2023-09-29T11:36:24.727Z,21.47
2023-09-29T11:38:53.957Z,21.45
2023-09-29T11:41:23.412Z,21.45
2023-09-29T11:43:52.358Z,21.52
2023-09-29T11:46:21.734Z,21.42
2023-09-29T11:48:51.880Z,21.54
2023-09-29T11:51:20.905Z,21.45
2023-09-29T11:53:50.728Z,21.53
2023-09-29T11:56:19.908Z,21.40
2023-09-29T11:58:48.643Z,21.49
2023-09-29T12:01:18.457Z,21.57
2023-09-29T12:03:57.633Z,21.60
2023-09-29T12:06:26.690Z,21.57
2023-09-29T12:08:57.152Z,21.62
2023-09-29T12:11:26.508Z,21.57
2023-09-29T12:13:55.037Z,21.58
2023-09-29T12:16:24.067Z,21.71
2023-09-29T12:18:53.108Z,21.73
2023-09-29T12:21:23.498Z,21.71
2023-09-29T12:23:52.008Z,21.76
2023-09-29T12:26:20.630Z,21.71
2023-09-29T12:28:50.046Z,21.75
2023-09-29T12:31:19.040Z,21.80
2023-09-29T12:33:47.670Z,21.86
2023-09-29T12:36:16.844Z,21.79
2023-09-29T12:38:47.707Z,21.73
2023-09-29T12:41:16.843Z,21.73
2023-09-29T12:43:46.065Z,21.79
2023-09-29T12:46:14.913Z,21.72
2023-09-29T12:48:45.279Z,21.77
2023-09-29T12:51:27.279Z,21.78
2023-09-29T12:53:58.758Z,21.76
2023-09-29T12:56:28.568Z,21.73
2023-09-29T12:58:57.625Z,21.83
2023-09-29T13:01:29.101Z,21.80
2023-09-29T13:03:58.205Z,21.78
2023-09-29T13:06:27.215Z,21.72
2023-09-29T13:08:57.384Z,21.74
2023-09-29T13:11:26.811Z,21.63
2023-09-29T13:13:55.885Z,21.59
2023-09-29T13:16:25.095Z,21.53
2023-09-29T13:18:54.757Z,21.54
2023-09-29T13:21:23.995Z,21.50
2023-09-29T13:23:53.091Z,21.50
2023-09-29T13:26:24.209Z,21.57
2023-09-29T13:28:53.087Z,21.53
2023-09-29T13:31:21.975Z,21.41
2023-09-29T13:33:52.147Z,21.38
2023-09-29T13:36:20.822Z,21.25
2023-09-29T13:38:49.658Z,21.20
2023-09-29T13:41:19.614Z,21.13
2023-09-29T13:43:50.326Z,21.03
2023-09-29T13:46:19.070Z,20.93
2023-09-29T13:48:47.726Z,20.81
2023-09-29T13:51:17.129Z,20.76
2023-09-29T13:53:46.704Z,20.80
2023-09-29T13:56:15.622Z,20.75
2023-09-29T13:58:44.182Z,20.88
2023-09-29T14:01:15.217Z,20.88
2023-09-29T14:03:44.225Z,20.93
2023-09-29T14:06:17.379Z,20.82
2023-09-29T14:08:46.166Z,20.68
2023-09-29T14:11:14.737Z,20.68
2023-09-29T14:13:43.263Z,20.46
2023-09-29T14:16:12.058Z,20.57
2023-09-29T14:18:42.386Z,20.53
2023-09-29T14:21:11.409Z,20.63
2023-09-29T14:23:40.120Z,20.60
2023-09-29T14:26:10.790Z,20.53
2023-09-29T14:28:41.521Z,20.37
2023-09-29T14:31:10.075Z,20.25
2023-09-29T14:33:41.198Z,20.22
2023-09-29T14:36:12.340Z,20.14
2023-09-29T14:38:42.278Z,20.17
2023-09-29T14:41:12.358Z,20.11
2023-09-29T14:43:43.913Z,20.03
2023-09-29T14:46:15.247Z,19.94
2023-09-29T14:48:44.259Z,19.78
2023-09-29T14:51:14.341Z,19.71
2023-09-29T14:53:43.301Z,19.66
2023-09-29T14:56:14.128Z,19.66
2023-09-29T14:58:43.235Z,19.59
2023-09-29T15:01:12.902Z,19.58
2023-09-29T15:03:42.099Z,19.39
2023-09-29T15:06:15.057Z,19.38
2023-09-29T15:08:48.945Z,19.28
2023-09-29T15:11:22.505Z,19.06
2023-09-29T15:13:51.572Z,18.94
2023-09-29T15:16:21.732Z,18.82
2023-09-29T15:18:52.430Z,18.79
2023-09-29T15:21:22.001Z,18.67
2023-09-29T15:23:55.928Z,18.55
2023-09-29T15:26:25.588Z,18.50
2023-09-29T15:28:54.323Z,18.59
2023-09-29T15:31:25.274Z,18.47
2023-09-29T15:33:54.377Z,18.44
2023-09-29T15:36:24.042Z,18.45
2023-09-29T15:39:01.228Z,18.31
2023-09-29T15:41:31.426Z,18.46
2023-09-29T15:43:59.930Z,18.30
2023-09-29T15:46:28.560Z,18.22
2023-09-29T15:48:57.314Z,18.12
2023-09-29T15:51:26.342Z,18.05
2023-09-29T15:53:56.870Z,18.05
2023-09-29T15:56:25.857Z,18.09
2023-09-29T15:58:54.404Z,18.23
2023-09-29T16:01:23.322Z,17.99
2023-09-29T16:03:53.228Z,17.90
2023-09-29T16:06:22.128Z,17.77
2023-09-29T16:08:52.893Z,17.89
2023-09-29T16:11:24.888Z,17.91
2023-09-29T16:13:53.669Z,17.76
2023-09-29T16:16:22.395Z,17.61
2023-09-29T16:18:54.212Z,17.59
2023-09-29T16:21:23.227Z,17.63
2023-09-29T16:23:52.536Z,17.55
2023-09-29T16:26:23.163Z,17.41
2023-09-29T16:28:53.487Z,17.40
2023-09-29T16:31:22.070Z,17.21
2023-09-29T16:33:53.411Z,17.17
2023-09-29T16:36:23.492Z,17.23
2023-09-29T16:38:52.817Z,17.13
2023-09-29T16:41:27.098Z,17.22
2023-09-29T16:43:56.024Z,17.21
2023-09-29T16:46:28.994Z,17.17
2023-09-29T16:48:57.991Z,17.09
2023-09-29T16:51:33.145Z,17.05
2023-09-29T16:54:03.216Z,17.00
2023-09-29T16:56:35.516Z,17.10
2023-09-29T16:59:05.674Z,17.28
2023-09-29T17:01:35.048Z,17.29
2023-09-29T17:04:04.828Z,17.26
2023-09-29T17:06:34.044Z,17.35
2023-09-29T17:09:03.598Z,17.26
2023-09-29T17:11:35.513Z,17.20
2023-09-29T17:14:04.380Z,17.14
2023-09-29T17:16:33.220Z,16.97
2023-09-29T17:19:02.277Z,17.17
2023-09-29T17:21:30.792Z,17.14
2023-09-29T17:24:00.620Z,17.40
2023-09-29T17:26:29.644Z,17.33
2023-09-29T17:29:00.655Z,17.18
2023-09-29T17:31:32.298Z,17.00
2023-09-29T17:34:01.080Z,16.76
2023-09-29T17:36:29.766Z,16.64
2023-09-29T17:38:59.318Z,16.57
2023-09-29T17:41:28.021Z,16.73
2023-09-29T17:43:57.311Z,16.65
2023-09-29T17:46:27.513Z,16.75
2023-09-29T17:48:56.642Z,16.71
2023-09-29T17:51:25.597Z,16.62
2023-09-29T17:53:54.537Z,16.61
2023-09-29T17:56:25.779Z,16.59
2023-09-29T17:58:54.403Z,16.45
2023-09-29T18:01:23.105Z,16.52
2023-09-29T18:03:53.278Z,16.65
2023-09-29T18:06:26.593Z,16.47
2023-09-29T18:08:58.087Z,16.36
2023-09-29T18:11:28.745Z,16.46
2023-09-29T18:14:00.173Z,16.23
2023-09-29T18:16:28.841Z,16.08
2023-09-29T18:19:00.378Z,16.04
2023-09-29T18:21:29.872Z,16.10
2023-09-29T18:23:59.432Z,16.23
2023-09-29T18:26:28.288Z,16.36
2023-09-29T18:28:57.334Z,16.08
2023-09-29T18:31:26.658Z,15.99
2023-09-29T18:33:55.457Z,15.73
2023-09-29T18:36:26.138Z,15.58
2023-09-29T18:38:54.974Z,15.52
2023-09-29T18:41:24.869Z,15.35
2023-09-29T18:43:57.614Z,15.14
2023-09-29T18:46:26.517Z,15.03
2023-09-29T18:48:55.702Z,14.95
2023-09-29T18:51:26.655Z,15.14
2023-09-29T18:53:55.515Z,15.50
2023-09-29T18:56:24.305Z,15.64
2023-09-29T18:58:53.850Z,15.59
2023-09-29T19:01:23.093Z,15.63
2023-09-29T19:03:51.827Z,15.67
2023-09-29T19:06:20.849Z,15.67
2023-09-29T19:08:51.418Z,15.43
2023-09-29T19:11:20.615Z,15.16
2023-09-29T19:13:49.702Z,15.06
2023-09-29T19:16:19.781Z,14.90
2023-09-29T19:18:48.620Z,14.75
2023-09-29T19:21:22.364Z,14.64
2023-09-29T19:23:55.621Z,14.61
2023-09-29T19:26:26.297Z,14.60
2023-09-29T19:28:56.348Z,14.56
2023-09-29T19:31:27.089Z,14.66
2023-09-29T19:33:56.756Z,14.57
2023-09-29T19:36:29.504Z,14.76
2023-09-29T19:39:00.189Z,14.62
2023-09-29T19:41:29.768Z,14.55
2023-09-29T19:44:00.605Z,14.49
2023-09-29T19:46:29.894Z,14.36
2023-09-29T19:48:59.686Z,14.37
2023-09-29T19:51:28.910Z,14.27
2023-09-29T19:53:59.977Z,14.28
2023-09-29T19:56:34.716Z,14.17
2023-09-29T19:59:05.853Z,14.15
2023-09-29T20:01:35.181Z,14.20
2023-09-29T20:04:05.187Z,14.05
2023-09-29T20:06:34.074Z,14.08
2023-09-29T20:09:04.290Z,13.96
2023-09-29T20:11:33.067Z,13.90
2023-09-29T20:14:01.946Z,13.97
2023-09-29T20:16:31.230Z,13.88
2023-09-29T20:19:00.352Z,13.83
2023-09-29T20:21:31.428Z,13.82
2023-09-29T20:24:01.663Z,13.75
2023-09-29T20:26:35.988Z,13.88
2023-09-29T20:29:05.660Z,13.81
2023-09-29T20:31:34.590Z,13.77
2023-09-29T20:34:03.820Z,13.80
2023-09-29T20:36:32.821Z,13.78
2023-09-29T20:39:06.335Z,13.87
2023-09-29T20:41:39.917Z,13.85
2023-09-29T20:44:09.613Z,13.92
2023-09-29T20:46:39.416Z,13.89
2023-09-29T20:49:08.133Z,14.01
2023-09-29T20:51:38.018Z,13.98
2023-09-29T20:54:06.886Z,14.09
2023-09-29T20:56:37.506Z,14.03
2023-09-29T20:59:06.952Z,13.98
2023-09-29T21:01:35.758Z,13.97
2023-09-29T21:04:07.755Z,14.01
2023-09-29T21:06:37.258Z,13.91
2023-09-29T21:09:06.717Z,13.91
2023-09-29T21:11:37.543Z,13.83
2023-09-29T21:14:09.614Z,13.89
2023-09-29T21:16:39.007Z,13.99
2023-09-29T21:19:07.834Z,14.11
2023-09-29T21:21:36.519Z,13.91
2023-09-29T21:24:06.452Z,13.82
2023-09-29T21:26:37.430Z,13.87
2023-09-29T21:29:07.253Z,13.89
2023-09-29T21:31:41.136Z,13.84
2023-09-29T21:34:10.137Z,13.77
2023-09-29T21:36:38.826Z,13.71
2023-09-29T21:39:09.175Z,13.62
2023-09-29T21:41:39.505Z,13.66
2023-09-29T21:44:12.234Z,13.68
2023-09-29T21:46:41.182Z,13.69
2023-09-29T21:49:10.431Z,13.53
2023-09-29T21:51:42.082Z,13.49
2023-09-29T21:54:13.351Z,13.45
2023-09-29T21:56:43.825Z,13.31
2023-09-29T21:59:14.833Z,13.27
2023-09-29T22:01:43.717Z,13.22
2023-09-29T22:04:15.763Z,13.20
2023-09-29T22:06:46.413Z,13.27
2023-09-29T22:09:15.492Z,13.27
2023-09-29T22:11:47.133Z,13.19
2023-09-29T22:14:15.756Z,13.13
2023-09-29T22:16:45.296Z,13.17
2023-09-29T22:19:15.481Z,13.06
2023-09-29T22:21:43.957Z,12.98
2023-09-29T22:24:13.936Z,12.97
2023-09-29T22:26:42.523Z,13.01
2023-09-29T22:29:12.590Z,12.94
2023-09-29T22:31:41.429Z,12.89
2023-09-29T22:34:10.431Z,13.09
2023-09-29T22:36:39.219Z,13.05
2023-09-29T22:39:08.577Z,12.99
2023-09-29T22:41:37.126Z,13.07
2023-09-29T22:44:06.338Z,13.09
2023-09-29T22:46:38.959Z,12.94
2023-09-29T22:49:08.256Z,13.00
2023-09-29T22:51:36.763Z,12.85
2023-09-29T22:54:08.988Z,12.82
2023-09-29T22:56:37.986Z,12.92
2023-09-29T22:59:06.417Z,12.90
2023-09-29T23:01:35.377Z,12.85
2023-09-29T23:04:06.606Z,12.84
2023-09-29T23:06:35.513Z,12.81
2023-09-29T23:09:07.223Z,12.65
2023-09-29T23:11:36.173Z,12.75
2023-09-29T23:14:04.877Z,12.68
2023-09-29T23:16:33.731Z,12.68
2023-09-29T23:19:02.189Z,12.64
2023-09-29T23:21:33.232Z,12.62
2023-09-29T23:24:02.245Z,12.47
2023-09-29T23:26:30.705Z,12.36
2023-09-29T23:28:59.331Z,12.40
2023-09-29T23:31:27.863Z,12.39
2023-09-29T23:33:56.932Z,12.39
2023-09-29T23:36:25.842Z,12.34
2023-09-29T23:38:56.141Z,12.35
2023-09-29T23:41:25.084Z,12.46
2023-09-29T23:43:53.828Z,12.41
2023-09-29T23:46:22.915Z,12.42
2023-09-29T23:48:53.353Z,12.35
2023-09-29T23:51:21.982Z,12.24
2023-09-29T23:53:51.027Z,12.20
2023-09-29T23:56:20.985Z,12.22
2023-09-29T23:58:50.010Z,12.19
